sensor_id;sensor_type;location;lat;lon;timestamp;P1;durP1;ratioP1;P2;durP2;ratioP2
47713;SDS011;33475;46.614;13.888;2022-09-09T00:00:06;3.70;;;0.70;;
47713;SDS011;33475;46.614;13.888;2022-09-09T00:02:32;1.30;;;0.57;;
47713;SDS011;33475;46.614;13.888;2022-09-09T00:04:59;1.15;;;0.60;;
47713;SDS011;33475;46.614;13.888;2022-09-09T00:12:37;1.55;;;0.65;;
47713;SDS011;33475;46.614;13.888;2022-09-09T00:15:14;0.95;;;0.60;;
47713;SDS011;33475;46.614;13.888;2022-09-09T00:17:43;1.05;;;0.68;;
47713;SDS011;33475;46.614;13.888;2022-09-09T00:20:34;1.38;;;0.60;;
47713;SDS011;33475;46.614;13.888;2022-09-09T00:28:22;2.83;;;0.63;;
47713;SDS011;33475;46.614;13.888;2022-09-09T00:30:48;1.35;;;0.45;;
47713;SDS011;33475;46.614;13.888;2022-09-09T00:33:16;2.05;;;0.68;;
47713;SDS011;33475;46.614;13.888;2022-09-09T00:35:56;3.28;;;0.63;;
47713;SDS011;33475;46.614;13.888;2022-09-09T00:38:24;2.70;;;0.50;;
47713;SDS011;33475;46.614;13.888;2022-09-09T00:48:50;2.15;;;0.75;;
47713;SDS011;33475;46.614;13.888;2022-09-09T00:51:37;1.73;;;0.70;;
47713;SDS011;33475;46.614;13.888;2022-09-09T00:56:52;1.05;;;0.50;;
47713;SDS011;33475;46.614;13.888;2022-09-09T00:59:34;2.40;;;0.60;;
47713;SDS011;33475;46.614;13.888;2022-09-09T01:02:02;0.63;;;0.50;;
47713;SDS011;33475;46.614;13.888;2022-09-09T01:04:34;1.63;;;0.70;;
47713;SDS011;33475;46.614;13.888;2022-09-09T01:07:04;3.67;;;0.80;;
47713;SDS011;33475;46.614;13.888;2022-09-09T01:14:51;0.63;;;0.38;;
47713;SDS011;33475;46.614;13.888;2022-09-09T01:22:33;0.50;;;0.50;;
47713;SDS011;33475;46.614;13.888;2022-09-09T01:27:46;1.98;;;0.70;;
47713;SDS011;33475;46.614;13.888;2022-09-09T01:30:15;0.55;;;0.55;;
47713;SDS011;33475;46.614;13.888;2022-09-09T01:32:46;1.60;;;0.60;;
47713;SDS011;33475;46.614;13.888;2022-09-09T01:35:19;1.20;;;0.40;;
47713;SDS011;33475;46.614;13.888;2022-09-09T01:37:48;1.48;;;0.80;;
47713;SDS011;33475;46.614;13.888;2022-09-09T01:40:14;1.67;;;0.80;;
47713;SDS011;33475;46.614;13.888;2022-09-09T01:42:40;5.28;;;0.70;;
47713;SDS011;33475;46.614;13.888;2022-09-09T01:45:06;0.95;;;0.50;;
47713;SDS011;33475;46.614;13.888;2022-09-09T01:47:32;4.10;;;0.60;;
47713;SDS011;33475;46.614;13.888;2022-09-09T01:49:59;0.80;;;0.47;;
47713;SDS011;33475;46.614;13.888;2022-09-09T01:52:25;3.80;;;0.50;;
47713;SDS011;33475;46.614;13.888;2022-09-09T01:54:51;1.40;;;0.60;;
47713;SDS011;33475;46.614;13.888;2022-09-09T01:57:27;1.77;;;0.80;;
47713;SDS011;33475;46.614;13.888;2022-09-09T02:00:03;1.77;;;0.60;;
47713;SDS011;33475;46.614;13.888;2022-09-09T02:05:23;1.40;;;0.50;;
47713;SDS011;33475;46.614;13.888;2022-09-09T02:08:28;5.47;;;0.98;;
47713;SDS011;33475;46.614;13.888;2022-09-09T02:13:26;0.90;;;0.50;;
47713;SDS011;33475;46.614;13.888;2022-09-09T02:16:03;1.25;;;0.90;;
47713;SDS011;33475;46.614;13.888;2022-09-09T02:18:32;2.72;;;0.60;;
47713;SDS011;33475;46.614;13.888;2022-09-09T02:21:00;2.03;;;0.80;;
47713;SDS011;33475;46.614;13.888;2022-09-09T02:23:26;3.90;;;1.30;;
47713;SDS011;33475;46.614;13.888;2022-09-09T02:25:53;5.75;;;1.60;;
47713;SDS011;33475;46.614;13.888;2022-09-09T02:28:20;3.78;;;1.40;;
47713;SDS011;33475;46.614;13.888;2022-09-09T02:30:49;2.95;;;2.00;;
47713;SDS011;33475;46.614;13.888;2022-09-09T02:33:22;3.50;;;1.80;;
47713;SDS011;33475;46.614;13.888;2022-09-09T02:35:49;3.33;;;1.77;;
47713;SDS011;33475;46.614;13.888;2022-09-09T02:38:15;4.40;;;1.90;;
47713;SDS011;33475;46.614;13.888;2022-09-09T02:40:42;4.22;;;1.35;;
47713;SDS011;33475;46.614;13.888;2022-09-09T02:43:08;5.57;;;1.80;;
47713;SDS011;33475;46.614;13.888;2022-09-09T02:46:08;9.57;;;1.60;;
47713;SDS011;33475;46.614;13.888;2022-09-09T02:48:30;3.40;;;1.52;;
47713;SDS011;33475;46.614;13.888;2022-09-09T02:53:32;2.15;;;1.13;;
47713;SDS011;33475;46.614;13.888;2022-09-09T02:56:17;1.13;;;0.88;;
47713;SDS011;33475;46.614;13.888;2022-09-09T02:58:44;3.33;;;1.10;;
47713;SDS011;33475;46.614;13.888;2022-09-09T03:01:11;4.07;;;1.42;;
47713;SDS011;33475;46.614;13.888;2022-09-09T03:03:37;4.85;;;1.15;;
47713;SDS011;33475;46.614;13.888;2022-09-09T03:06:04;5.30;;;0.85;;
47713;SDS011;33475;46.614;13.888;2022-09-09T03:08:30;3.15;;;0.90;;
47713;SDS011;33475;46.614;13.888;2022-09-09T03:10:58;2.78;;;0.68;;
47713;SDS011;33475;46.614;13.888;2022-09-09T03:13:26;4.70;;;0.80;;
47713;SDS011;33475;46.614;13.888;2022-09-09T03:15:53;2.03;;;0.93;;
47713;SDS011;33475;46.614;13.888;2022-09-09T03:18:19;5.22;;;0.80;;
47713;SDS011;33475;46.614;13.888;2022-09-09T03:20:45;1.20;;;1.10;;
47713;SDS011;33475;46.614;13.888;2022-09-09T03:23:16;2.00;;;0.88;;
47713;SDS011;33475;46.614;13.888;2022-09-09T03:25:49;3.58;;;1.10;;
47713;SDS011;33475;46.614;13.888;2022-09-09T03:28:16;2.33;;;0.80;;
47713;SDS011;33475;46.614;13.888;2022-09-09T03:30:42;3.90;;;1.10;;
47713;SDS011;33475;46.614;13.888;2022-09-09T03:33:08;2.53;;;0.90;;
47713;SDS011;33475;46.614;13.888;2022-09-09T03:35:34;4.20;;;1.10;;
47713;SDS011;33475;46.614;13.888;2022-09-09T03:38:01;5.07;;;1.38;;
47713;SDS011;33475;46.614;13.888;2022-09-09T03:40:27;3.33;;;1.15;;
47713;SDS011;33475;46.614;13.888;2022-09-09T03:42:53;2.00;;;0.80;;
47713;SDS011;33475;46.614;13.888;2022-09-09T03:45:19;3.85;;;0.93;;
47713;SDS011;33475;46.614;13.888;2022-09-09T03:47:45;4.43;;;0.60;;
47713;SDS011;33475;46.614;13.888;2022-09-09T03:50:11;0.70;;;0.70;;
47713;SDS011;33475;46.614;13.888;2022-09-09T03:52:38;2.75;;;0.80;;
47713;SDS011;33475;46.614;13.888;2022-09-09T03:55:06;3.40;;;0.73;;
47713;SDS011;33475;46.614;13.888;2022-09-09T03:57:32;4.72;;;0.90;;
47713;SDS011;33475;46.614;13.888;2022-09-09T04:00:01;1.60;;;0.52;;
47713;SDS011;33475;46.614;13.888;2022-09-09T04:02:27;4.90;;;0.65;;
47713;SDS011;33475;46.614;13.888;2022-09-09T04:04:53;2.88;;;0.70;;
47713;SDS011;33475;46.614;13.888;2022-09-09T04:07:20;2.20;;;1.00;;
47713;SDS011;33475;46.614;13.888;2022-09-09T04:09:46;5.25;;;0.80;;
47713;SDS011;33475;46.614;13.888;2022-09-09T04:12:13;3.30;;;0.60;;
47713;SDS011;33475;46.614;13.888;2022-09-09T04:14:39;1.05;;;0.50;;
47713;SDS011;33475;46.614;13.888;2022-09-09T04:17:05;4.05;;;0.75;;
47713;SDS011;33475;46.614;13.888;2022-09-09T04:19:32;2.95;;;0.75;;
47713;SDS011;33475;46.614;13.888;2022-09-09T04:21:58;2.50;;;0.60;;
47713;SDS011;33475;46.614;13.888;2022-09-09T04:24:24;1.45;;;0.60;;
47713;SDS011;33475;46.614;13.888;2022-09-09T04:26:52;1.33;;;0.68;;
47713;SDS011;33475;46.614;13.888;2022-09-09T04:29:18;1.13;;;0.45;;
47713;SDS011;33475;46.614;13.888;2022-09-09T04:31:44;3.80;;;0.50;;
47713;SDS011;33475;46.614;13.888;2022-09-09T04:34:10;3.65;;;0.60;;
47713;SDS011;33475;46.614;13.888;2022-09-09T04:36:36;2.40;;;1.05;;
47713;SDS011;33475;46.614;13.888;2022-09-09T04:39:05;2.13;;;0.50;;
47713;SDS011;33475;46.614;13.888;2022-09-09T04:41:31;2.50;;;0.60;;
47713;SDS011;33475;46.614;13.888;2022-09-09T04:43:57;2.25;;;0.57;;
47713;SDS011;33475;46.614;13.888;2022-09-09T04:46:26;1.45;;;0.75;;
47713;SDS011;33475;46.614;13.888;2022-09-09T04:48:52;1.15;;;0.82;;
47713;SDS011;33475;46.614;13.888;2022-09-09T04:51:18;4.55;;;0.70;;
47713;SDS011;33475;46.614;13.888;2022-09-09T04:53:44;1.92;;;0.90;;
47713;SDS011;33475;46.614;13.888;2022-09-09T04:56:13;4.00;;;0.80;;
47713;SDS011;33475;46.614;13.888;2022-09-09T04:58:40;2.65;;;0.60;;
47713;SDS011;33475;46.614;13.888;2022-09-09T05:01:11;3.13;;;0.95;;
47713;SDS011;33475;46.614;13.888;2022-09-09T05:03:38;1.85;;;0.90;;
47713;SDS011;33475;46.614;13.888;2022-09-09T05:06:08;5.28;;;0.70;;
47713;SDS011;33475;46.614;13.888;2022-09-09T05:08:38;5.60;;;1.00;;
47713;SDS011;33475;46.614;13.888;2022-09-09T05:11:17;4.97;;;0.93;;
47713;SDS011;33475;46.614;13.888;2022-09-09T05:13:44;6.60;;;0.93;;
47713;SDS011;33475;46.614;13.888;2022-09-09T05:16:11;2.83;;;1.10;;
47713;SDS011;33475;46.614;13.888;2022-09-09T05:18:38;7.80;;;1.00;;
47713;SDS011;33475;46.614;13.888;2022-09-09T05:21:04;2.45;;;0.80;;
47713;SDS011;33475;46.614;13.888;2022-09-09T05:23:31;3.72;;;0.98;;
47713;SDS011;33475;46.614;13.888;2022-09-09T05:25:59;4.15;;;0.90;;
47713;SDS011;33475;46.614;13.888;2022-09-09T05:28:25;3.58;;;1.40;;
47713;SDS011;33475;46.614;13.888;2022-09-09T05:30:58;3.55;;;0.90;;
47713;SDS011;33475;46.614;13.888;2022-09-09T05:33:25;12.50;;;1.03;;
47713;SDS011;33475;46.614;13.888;2022-09-09T05:36:02;4.20;;;1.30;;
47713;SDS011;33475;46.614;13.888;2022-09-09T05:38:30;4.25;;;2.80;;
47713;SDS011;33475;46.614;13.888;2022-09-09T05:40:57;2.47;;;0.90;;
47713;SDS011;33475;46.614;13.888;2022-09-09T05:43:23;5.00;;;0.90;;
47713;SDS011;33475;46.614;13.888;2022-09-09T05:46:03;3.30;;;1.00;;
47713;SDS011;33475;46.614;13.888;2022-09-09T05:48:30;1.40;;;0.80;;
47713;SDS011;33475;46.614;13.888;2022-09-09T05:50:57;2.22;;;1.55;;
47713;SDS011;33475;46.614;13.888;2022-09-09T05:53:24;1.25;;;1.00;;
47713;SDS011;33475;46.614;13.888;2022-09-09T05:55:50;2.13;;;1.23;;
47713;SDS011;33475;46.614;13.888;2022-09-09T05:58:17;6.40;;;1.30;;
47713;SDS011;33475;46.614;13.888;2022-09-09T06:00:43;5.97;;;1.17;;
47713;SDS011;33475;46.614;13.888;2022-09-09T06:03:11;2.53;;;0.85;;
47713;SDS011;33475;46.614;13.888;2022-09-09T06:05:37;4.40;;;1.35;;
47713;SDS011;33475;46.614;13.888;2022-09-09T06:08:03;6.95;;;1.52;;
47713;SDS011;33475;46.614;13.888;2022-09-09T06:10:29;7.82;;;3.17;;
47713;SDS011;33475;46.614;13.888;2022-09-09T06:12:55;6.30;;;3.33;;
47713;SDS011;33475;46.614;13.888;2022-09-09T06:15:22;5.97;;;2.95;;
47713;SDS011;33475;46.614;13.888;2022-09-09T06:17:53;5.75;;;2.90;;
47713;SDS011;33475;46.614;13.888;2022-09-09T06:20:20;9.15;;;4.03;;
47713;SDS011;33475;46.614;13.888;2022-09-09T06:22:47;10.68;;;3.30;;
47713;SDS011;33475;46.614;13.888;2022-09-09T06:25:13;7.97;;;3.40;;
47713;SDS011;33475;46.614;13.888;2022-09-09T06:27:40;6.78;;;2.45;;
47713;SDS011;33475;46.614;13.888;2022-09-09T06:30:07;6.88;;;2.15;;
47713;SDS011;33475;46.614;13.888;2022-09-09T06:32:34;4.82;;;2.10;;
47713;SDS011;33475;46.614;13.888;2022-09-09T06:35:03;5.00;;;2.22;;
47713;SDS011;33475;46.614;13.888;2022-09-09T06:37:29;4.63;;;1.58;;
47713;SDS011;33475;46.614;13.888;2022-09-09T06:39:56;5.18;;;1.23;;
47713;SDS011;33475;46.614;13.888;2022-09-09T06:42:23;3.88;;;1.70;;
47713;SDS011;33475;46.614;13.888;2022-09-09T06:44:49;6.55;;;1.67;;
47713;SDS011;33475;46.614;13.888;2022-09-09T06:47:15;11.55;;;1.60;;
47713;SDS011;33475;46.614;13.888;2022-09-09T06:49:41;12.02;;;2.10;;
47713;SDS011;33475;46.614;13.888;2022-09-09T06:52:08;6.95;;;2.20;;
47713;SDS011;33475;46.614;13.888;2022-09-09T06:54:35;3.35;;;2.10;;
47713;SDS011;33475;46.614;13.888;2022-09-09T06:57:02;4.65;;;2.70;;
47713;SDS011;33475;46.614;13.888;2022-09-09T06:59:28;5.85;;;2.40;;
47713;SDS011;33475;46.614;13.888;2022-09-09T07:01:55;9.48;;;2.97;;
47713;SDS011;33475;46.614;13.888;2022-09-09T07:04:22;4.63;;;2.22;;
47713;SDS011;33475;46.614;13.888;2022-09-09T07:06:48;16.73;;;1.90;;
47713;SDS011;33475;46.614;13.888;2022-09-09T07:09:15;7.28;;;2.00;;
47713;SDS011;33475;46.614;13.888;2022-09-09T07:11:45;3.70;;;1.60;;
47713;SDS011;33475;46.614;13.888;2022-09-09T07:14:11;4.43;;;2.00;;
47713;SDS011;33475;46.614;13.888;2022-09-09T07:16:44;2.38;;;1.48;;
47713;SDS011;33475;46.614;13.888;2022-09-09T07:19:11;4.70;;;1.77;;
47713;SDS011;33475;46.614;13.888;2022-09-09T07:21:37;3.13;;;1.80;;
47713;SDS011;33475;46.614;13.888;2022-09-09T07:24:05;3.38;;;2.10;;
47713;SDS011;33475;46.614;13.888;2022-09-09T07:26:34;3.13;;;1.70;;
47713;SDS011;33475;46.614;13.888;2022-09-09T07:29:01;3.20;;;1.45;;
47713;SDS011;33475;46.614;13.888;2022-09-09T07:31:28;4.03;;;2.00;;
47713;SDS011;33475;46.614;13.888;2022-09-09T07:33:55;6.85;;;2.00;;
47713;SDS011;33475;46.614;13.888;2022-09-09T07:36:26;7.20;;;2.15;;
47713;SDS011;33475;46.614;13.888;2022-09-09T07:38:54;3.50;;;1.80;;
47713;SDS011;33475;46.614;13.888;2022-09-09T07:41:25;3.17;;;1.48;;
47713;SDS011;33475;46.614;13.888;2022-09-09T07:43:52;2.45;;;1.58;;
47713;SDS011;33475;46.614;13.888;2022-09-09T07:46:22;4.93;;;1.33;;
47713;SDS011;33475;46.614;13.888;2022-09-09T07:48:57;3.13;;;1.48;;
47713;SDS011;33475;46.614;13.888;2022-09-09T07:51:34;1.50;;;1.05;;
47713;SDS011;33475;46.614;13.888;2022-09-09T07:54:03;2.30;;;1.15;;
47713;SDS011;33475;46.614;13.888;2022-09-09T07:56:29;2.17;;;0.90;;
47713;SDS011;33475;46.614;13.888;2022-09-09T07:58:56;1.85;;;1.17;;
47713;SDS011;33475;46.614;13.888;2022-09-09T08:01:25;2.40;;;1.15;;
47713;SDS011;33475;46.614;13.888;2022-09-09T08:03:53;1.48;;;1.02;;
47713;SDS011;33475;46.614;13.888;2022-09-09T08:06:20;2.25;;;0.85;;
47713;SDS011;33475;46.614;13.888;2022-09-09T08:08:49;1.88;;;1.30;;
47713;SDS011;33475;46.614;13.888;2022-09-09T08:11:15;1.30;;;1.08;;
47713;SDS011;33475;46.614;13.888;2022-09-09T08:13:42;1.35;;;1.00;;
47713;SDS011;33475;46.614;13.888;2022-09-09T08:18:34;1.38;;;0.80;;
47713;SDS011;33475;46.614;13.888;2022-09-09T08:21:14;5.40;;;1.10;;
47713;SDS011;33475;46.614;13.888;2022-09-09T08:23:43;1.00;;;0.85;;
47713;SDS011;33475;46.614;13.888;2022-09-09T08:26:18;2.60;;;0.70;;
47713;SDS011;33475;46.614;13.888;2022-09-09T08:28:46;1.40;;;0.75;;
47713;SDS011;33475;46.614;13.888;2022-09-09T08:31:14;2.20;;;0.85;;
47713;SDS011;33475;46.614;13.888;2022-09-09T08:33:41;0.68;;;0.60;;
47713;SDS011;33475;46.614;13.888;2022-09-09T08:36:11;0.65;;;0.63;;
47713;SDS011;33475;46.614;13.888;2022-09-09T08:38:38;0.65;;;0.65;;
47713;SDS011;33475;46.614;13.888;2022-09-09T08:41:12;0.50;;;0.50;;
47713;SDS011;33475;46.614;13.888;2022-09-09T08:43:41;1.65;;;1.00;;
47713;SDS011;33475;46.614;13.888;2022-09-09T08:46:10;0.73;;;0.50;;
47713;SDS011;33475;46.614;13.888;2022-09-09T08:51:03;1.20;;;0.75;;
47713;SDS011;33475;46.614;13.888;2022-09-09T08:53:41;0.93;;;0.63;;
47713;SDS011;33475;46.614;13.888;2022-09-09T08:56:09;1.40;;;0.50;;
47713;SDS011;33475;46.614;13.888;2022-09-09T08:58:41;3.53;;;0.50;;
47713;SDS011;33475;46.614;13.888;2022-09-09T09:08:38;4.10;;;0.88;;
47713;SDS011;33475;46.614;13.888;2022-09-09T09:11:09;3.10;;;1.35;;
47713;SDS011;33475;46.614;13.888;2022-09-09T09:16:33;6.38;;;1.80;;
47713;SDS011;33475;46.614;13.888;2022-09-09T09:18:57;7.53;;;2.00;;
47713;SDS011;33475;46.614;13.888;2022-09-09T09:21:29;3.55;;;1.80;;
47713;SDS011;33475;46.614;13.888;2022-09-09T09:24:00;3.17;;;1.77;;
47713;SDS011;33475;46.614;13.888;2022-09-09T09:26:29;2.67;;;1.38;;
47713;SDS011;33475;46.614;13.888;2022-09-09T09:28:56;2.45;;;1.00;;
47713;SDS011;33475;46.614;13.888;2022-09-09T09:31:25;1.08;;;0.70;;
47713;SDS011;33475;46.614;13.888;2022-09-09T09:33:53;1.45;;;0.60;;
47713;SDS011;33475;46.614;13.888;2022-09-09T09:36:20;1.73;;;0.80;;
47713;SDS011;33475;46.614;13.888;2022-09-09T09:43:58;2.30;;;0.57;;
47713;SDS011;33475;46.614;13.888;2022-09-09T09:46:26;2.13;;;0.45;;
47713;SDS011;33475;46.614;13.888;2022-09-09T09:48:56;0.50;;;0.30;;
47713;SDS011;33475;46.614;13.888;2022-09-09T09:51:23;1.08;;;0.47;;
47713;SDS011;33475;46.614;13.888;2022-09-09T09:53:50;0.40;;;0.38;;
47713;SDS011;33475;46.614;13.888;2022-09-09T09:56:25;3.47;;;0.47;;
47713;SDS011;33475;46.614;13.888;2022-09-09T09:58:52;1.05;;;0.40;;
47713;SDS011;33475;46.614;13.888;2022-09-09T10:03:49;1.30;;;0.47;;
47713;SDS011;33475;46.614;13.888;2022-09-09T10:06:16;0.85;;;0.40;;
47713;SDS011;33475;46.614;13.888;2022-09-09T10:08:45;3.53;;;0.35;;
47713;SDS011;33475;46.614;13.888;2022-09-09T10:19:01;1.55;;;0.60;;
47713;SDS011;33475;46.614;13.888;2022-09-09T10:36:47;0.82;;;0.45;;
47713;SDS011;33475;46.614;13.888;2022-09-09T10:39:28;0.80;;;0.32;;
47713;SDS011;33475;46.614;13.888;2022-09-09T10:44:29;0.45;;;0.40;;
47713;SDS011;33475;46.614;13.888;2022-09-09T10:52:40;1.20;;;0.55;;
47713;SDS011;33475;46.614;13.888;2022-09-09T10:55:16;0.60;;;0.40;;
47713;SDS011;33475;46.614;13.888;2022-09-09T10:57:47;0.77;;;0.35;;
47713;SDS011;33475;46.614;13.888;2022-09-09T11:02:55;1.33;;;0.43;;
47713;SDS011;33475;46.614;13.888;2022-09-09T11:05:25;1.35;;;0.77;;
47713;SDS011;33475;46.614;13.888;2022-09-09T11:08:04;0.90;;;0.57;;
47713;SDS011;33475;46.614;13.888;2022-09-09T11:10:49;1.63;;;0.70;;
47713;SDS011;33475;46.614;13.888;2022-09-09T11:13:26;1.58;;;0.68;;
47713;SDS011;33475;46.614;13.888;2022-09-09T11:18:36;1.88;;;0.70;;
47713;SDS011;33475;46.614;13.888;2022-09-09T11:21:12;0.85;;;0.63;;
47713;SDS011;33475;46.614;13.888;2022-09-09T11:23:44;1.00;;;0.77;;
47713;SDS011;33475;46.614;13.888;2022-09-09T11:26:13;1.55;;;0.77;;
47713;SDS011;33475;46.614;13.888;2022-09-09T11:44:41;1.52;;;0.60;;
47713;SDS011;33475;46.614;13.888;2022-09-09T11:47:26;1.10;;;0.60;;
47713;SDS011;33475;46.614;13.888;2022-09-09T11:52:42;3.55;;;0.57;;
47713;SDS011;33475;46.614;13.888;2022-09-09T11:57:37;1.75;;;0.90;;
47713;SDS011;33475;46.614;13.888;2022-09-09T12:00:04;0.70;;;0.60;;
47713;SDS011;33475;46.614;13.888;2022-09-09T12:02:31;1.25;;;0.75;;
47713;SDS011;33475;46.614;13.888;2022-09-09T12:05:07;2.10;;;0.70;;
47713;SDS011;33475;46.614;13.888;2022-09-09T12:07:35;1.13;;;0.70;;
47713;SDS011;33475;46.614;13.888;2022-09-09T12:12:45;1.10;;;0.50;;
47713;SDS011;33475;46.614;13.888;2022-09-09T12:17:44;1.42;;;0.70;;
47713;SDS011;33475;46.614;13.888;2022-09-09T12:27:41;0.80;;;0.52;;
47713;SDS011;33475;46.614;13.888;2022-09-09T12:30:11;2.85;;;0.57;;
47713;SDS011;33475;46.614;13.888;2022-09-09T12:32:38;0.90;;;0.70;;
47713;SDS011;33475;46.614;13.888;2022-09-09T12:35:19;0.82;;;0.55;;
47713;SDS011;33475;46.614;13.888;2022-09-09T12:37:50;0.98;;;0.50;;
47713;SDS011;33475;46.614;13.888;2022-09-09T12:40:21;1.40;;;0.80;;
47713;SDS011;33475;46.614;13.888;2022-09-09T12:42:49;0.90;;;0.50;;
47713;SDS011;33475;46.614;13.888;2022-09-09T12:45:19;1.23;;;0.50;;
47713;SDS011;33475;46.614;13.888;2022-09-09T12:47:53;0.65;;;0.45;;
47713;SDS011;33475;46.614;13.888;2022-09-09T12:50:25;0.70;;;0.52;;
47713;SDS011;33475;46.614;13.888;2022-09-09T12:52:56;2.05;;;0.90;;
47713;SDS011;33475;46.614;13.888;2022-09-09T12:55:30;0.65;;;0.45;;
47713;SDS011;33475;46.614;13.888;2022-09-09T12:57:58;0.70;;;0.57;;
47713;SDS011;33475;46.614;13.888;2022-09-09T13:00:25;0.80;;;0.40;;
47713;SDS011;33475;46.614;13.888;2022-09-09T13:02:56;0.77;;;0.32;;
47713;SDS011;33475;46.614;13.888;2022-09-09T13:08:02;4.07;;;1.00;;
47713;SDS011;33475;46.614;13.888;2022-09-09T13:10:29;1.38;;;0.50;;
47713;SDS011;33475;46.614;13.888;2022-09-09T13:12:57;1.67;;;0.70;;
47713;SDS011;33475;46.614;13.888;2022-09-09T13:15:26;0.98;;;0.60;;
47713;SDS011;33475;46.614;13.888;2022-09-09T13:17:54;1.10;;;0.40;;
47713;SDS011;33475;46.614;13.888;2022-09-09T13:20:21;0.63;;;0.50;;
47713;SDS011;33475;46.614;13.888;2022-09-09T13:22:49;0.40;;;0.40;;
47713;SDS011;33475;46.614;13.888;2022-09-09T13:25:23;0.50;;;0.50;;
47713;SDS011;33475;46.614;13.888;2022-09-09T13:27:57;1.27;;;0.75;;
47713;SDS011;33475;46.614;13.888;2022-09-09T13:30:25;2.28;;;0.60;;
47713;SDS011;33475;46.614;13.888;2022-09-09T13:33:01;0.60;;;0.40;;
47713;SDS011;33475;46.614;13.888;2022-09-09T13:35:29;1.40;;;0.68;;
47713;SDS011;33475;46.614;13.888;2022-09-09T13:37:59;0.80;;;0.70;;
47713;SDS011;33475;46.614;13.888;2022-09-09T13:40:35;0.50;;;0.50;;
47713;SDS011;33475;46.614;13.888;2022-09-09T13:43:04;1.08;;;0.60;;
47713;SDS011;33475;46.614;13.888;2022-09-09T13:45:33;0.63;;;0.57;;
47713;SDS011;33475;46.614;13.888;2022-09-09T13:48:08;0.75;;;0.50;;
47713;SDS011;33475;46.614;13.888;2022-09-09T13:50:37;1.20;;;0.50;;
47713;SDS011;33475;46.614;13.888;2022-09-09T13:53:04;0.95;;;0.60;;
47713;SDS011;33475;46.614;13.888;2022-09-09T13:55:32;0.50;;;0.50;;
47713;SDS011;33475;46.614;13.888;2022-09-09T13:58:03;1.00;;;0.60;;
47713;SDS011;33475;46.614;13.888;2022-09-09T14:00:32;1.08;;;0.50;;
47713;SDS011;33475;46.614;13.888;2022-09-09T14:03:01;1.38;;;0.68;;
47713;SDS011;33475;46.614;13.888;2022-09-09T14:05:32;2.22;;;1.00;;
47713;SDS011;33475;46.614;13.888;2022-09-09T14:08:02;0.80;;;0.77;;
47713;SDS011;33475;46.614;13.888;2022-09-09T14:10:32;0.77;;;0.55;;
47713;SDS011;33475;46.614;13.888;2022-09-09T14:13:03;0.88;;;0.70;;
47713;SDS011;33475;46.614;13.888;2022-09-09T14:15:32;1.65;;;1.10;;
47713;SDS011;33475;46.614;13.888;2022-09-09T14:18:01;1.52;;;0.65;;
47713;SDS011;33475;46.614;13.888;2022-09-09T14:20:28;1.60;;;0.70;;
47713;SDS011;33475;46.614;13.888;2022-09-09T14:22:57;0.68;;;0.50;;
47713;SDS011;33475;46.614;13.888;2022-09-09T14:25:26;0.85;;;0.68;;
47713;SDS011;33475;46.614;13.888;2022-09-09T14:27:52;0.70;;;0.70;;
47713;SDS011;33475;46.614;13.888;2022-09-09T14:30:19;1.27;;;0.70;;
47713;SDS011;33475;46.614;13.888;2022-09-09T14:32:46;1.02;;;0.52;;
47713;SDS011;33475;46.614;13.888;2022-09-09T14:35:13;1.38;;;0.60;;
47713;SDS011;33475;46.614;13.888;2022-09-09T14:37:43;0.95;;;0.85;;
47713;SDS011;33475;46.614;13.888;2022-09-09T14:40:11;3.03;;;0.80;;
47713;SDS011;33475;46.614;13.888;2022-09-09T14:42:41;1.55;;;0.90;;
47713;SDS011;33475;46.614;13.888;2022-09-09T14:45:09;1.95;;;0.82;;
47713;SDS011;33475;46.614;13.888;2022-09-09T14:47:36;0.73;;;0.73;;
47713;SDS011;33475;46.614;13.888;2022-09-09T14:50:05;1.20;;;1.10;;
47713;SDS011;33475;46.614;13.888;2022-09-09T14:52:33;1.48;;;1.15;;
47713;SDS011;33475;46.614;13.888;2022-09-09T14:55:03;2.33;;;0.90;;
47713;SDS011;33475;46.614;13.888;2022-09-09T14:57:32;1.27;;;1.17;;
47713;SDS011;33475;46.614;13.888;2022-09-09T15:00:02;1.55;;;1.00;;
47713;SDS011;33475;46.614;13.888;2022-09-09T15:02:31;1.00;;;0.90;;
47713;SDS011;33475;46.614;13.888;2022-09-09T15:04:59;1.02;;;0.75;;
47713;SDS011;33475;46.614;13.888;2022-09-09T15:07:27;0.88;;;0.80;;
47713;SDS011;33475;46.614;13.888;2022-09-09T15:09:55;1.40;;;0.90;;
47713;SDS011;33475;46.614;13.888;2022-09-09T15:12:23;5.78;;;1.88;;
47713;SDS011;33475;46.614;13.888;2022-09-09T15:14:55;1.70;;;0.95;;
47713;SDS011;33475;46.614;13.888;2022-09-09T15:17:23;1.30;;;0.80;;
47713;SDS011;33475;46.614;13.888;2022-09-09T15:19:53;2.35;;;0.90;;
47713;SDS011;33475;46.614;13.888;2022-09-09T15:22:23;3.55;;;1.10;;
47713;SDS011;33475;46.614;13.888;2022-09-09T15:24:52;2.17;;;1.05;;
47713;SDS011;33475;46.614;13.888;2022-09-09T15:27:18;2.53;;;1.38;;
47713;SDS011;33475;46.614;13.888;2022-09-09T15:29:44;2.47;;;1.25;;
47713;SDS011;33475;46.614;13.888;2022-09-09T15:32:12;1.80;;;0.90;;
47713;SDS011;33475;46.614;13.888;2022-09-09T15:34:38;1.48;;;1.00;;
47713;SDS011;33475;46.614;13.888;2022-09-09T15:37:04;3.17;;;0.90;;
47713;SDS011;33475;46.614;13.888;2022-09-09T15:39:31;2.15;;;1.20;;
47713;SDS011;33475;46.614;13.888;2022-09-09T15:41:57;12.27;;;1.50;;
47713;SDS011;33475;46.614;13.888;2022-09-09T15:44:26;3.85;;;1.88;;
47713;SDS011;33475;46.614;13.888;2022-09-09T15:46:52;1.58;;;0.82;;
47713;SDS011;33475;46.614;13.888;2022-09-09T15:49:19;4.35;;;1.42;;
47713;SDS011;33475;46.614;13.888;2022-09-09T15:51:54;1.33;;;1.02;;
47713;SDS011;33475;46.614;13.888;2022-09-09T15:54:21;3.03;;;1.83;;
47713;SDS011;33475;46.614;13.888;2022-09-09T15:56:54;1.30;;;1.20;;
47713;SDS011;33475;46.614;13.888;2022-09-09T15:59:24;4.13;;;1.35;;
47713;SDS011;33475;46.614;13.888;2022-09-09T16:01:53;2.17;;;1.30;;
47713;SDS011;33475;46.614;13.888;2022-09-09T16:04:20;6.82;;;2.55;;
47713;SDS011;33475;46.614;13.888;2022-09-09T16:06:50;1.48;;;1.30;;
47713;SDS011;33475;46.614;13.888;2022-09-09T16:09:17;4.07;;;1.75;;
47713;SDS011;33475;46.614;13.888;2022-09-09T16:11:43;2.47;;;2.28;;
47713;SDS011;33475;46.614;13.888;2022-09-09T16:14:10;3.80;;;3.33;;
47713;SDS011;33475;46.614;13.888;2022-09-09T16:16:36;1.98;;;1.70;;
47713;SDS011;33475;46.614;13.888;2022-09-09T16:19:05;2.83;;;2.38;;
47713;SDS011;33475;46.614;13.888;2022-09-09T16:21:39;2.03;;;1.40;;
47713;SDS011;33475;46.614;13.888;2022-09-09T16:24:06;2.58;;;1.35;;
47713;SDS011;33475;46.614;13.888;2022-09-09T16:26:33;1.73;;;1.10;;
47713;SDS011;33475;46.614;13.888;2022-09-09T16:29:00;1.52;;;1.15;;
47713;SDS011;33475;46.614;13.888;2022-09-09T16:31:28;1.58;;;1.40;;
47713;SDS011;33475;46.614;13.888;2022-09-09T16:33:55;4.22;;;2.03;;
47713;SDS011;33475;46.614;13.888;2022-09-09T16:36:22;6.60;;;3.05;;
47713;SDS011;33475;46.614;13.888;2022-09-09T16:38:51;2.38;;;1.60;;
47713;SDS011;33475;46.614;13.888;2022-09-09T16:41:19;2.53;;;1.40;;
47713;SDS011;33475;46.614;13.888;2022-09-09T16:43:45;2.22;;;1.50;;
47713;SDS011;33475;46.614;13.888;2022-09-09T16:48:37;3.15;;;1.80;;
47713;SDS011;33475;46.614;13.888;2022-09-09T16:51:07;3.17;;;1.50;;
47713;SDS011;33475;46.614;13.888;2022-09-09T16:53:35;1.95;;;1.30;;
47713;SDS011;33475;46.614;13.888;2022-09-09T16:56:08;1.60;;;1.48;;
47713;SDS011;33475;46.614;13.888;2022-09-09T16:58:34;4.80;;;3.20;;
47713;SDS011;33475;46.614;13.888;2022-09-09T17:01:02;3.38;;;1.67;;
47713;SDS011;33475;46.614;13.888;2022-09-09T17:03:28;1.77;;;1.67;;